Time;durP1;ratioP1;P1;durP2;ratioP2;P2;SDS_P1;SDS_P2;PMS_P1;PMS_P2;Temp;Humidity;BMP_temperature;BMP_pressure;BME280_temperature;BME280_humidity;BME280_pressure;Samples;Min_cycle;Max_cycle;Signal;HPM_P1;HPM_P2
2021/07/16 00:00:40;;;;;;;;;;;;;;;-148.22;100.00;58358.63;5077818;28;1247;-81
2021/07/16 00:03:06;;;;;;;;;;;;;;;-148.22;100.00;58358.63;5079345;28;985;-82
2021/07/16 00:05:33;;;;;;;;;;;;;;;-148.22;100.00;58358.63;5077895;28;1906;-82
2021/07/16 00:08:00;;;;;;;;;;;;;;;-148.22;100.00;58358.63;5079581;28;748;-82
2021/07/16 00:10:43;;;;;;;;;;;;;;;-148.22;100.00;58358.63;5078947;28;779;-82
2021/07/16 00:13:08;;;;;;;;;;;;;;;-148.22;100.00;58358.63;5077556;28;1314;-82
2021/07/16 00:15:36;;;;;;;;;;;;;;;-148.22;100.00;58358.63;5078873;28;823;-82
2021/07/16 00:18:09;;;;;;;;;;;;;;;-148.22;100.00;58358.63;5077690;28;1266;-82
2021/07/16 00:20:35;;;;;;;;;;;;;;;-148.22;100.00;58358.63;5077814;28;1380;-82
2021/07/16 00:23:02;;;;;;;;;;;;;;;-148.22;100.00;58358.63;5077451;28;1178;-82
2021/07/16 00:25:27;;;;;;;;;;;;;;;-148.22;100.00;58358.63;5077515;28;1980;-82
2021/07/16 00:27:55;;;;;;;;;;;;;;;-148.22;100.00;58358.63;5077360;28;1260;-82
2021/07/16 00:30:27;;;;;;;;;;;;;;;-148.22;100.00;58358.63;5077461;28;1171;-82
2021/07/16 00:32:59;;;;;;;;;;;;;;;-148.22;100.00;58358.63;5077254;28;1311;-82
2021/07/16 00:35:36;;;;;;;;;;;;;;;-148.22;100.00;58358.63;5078608;28;993;-82
2021/07/16 00:38:02;;;;;;;;;;;;;;;-148.22;100.00;58358.63;5078437;28;850;-83
2021/07/16 00:40:28;;;;;;;;;;;;;;;-148.22;100.00;58358.63;5078485;28;889;-82
2021/07/16 00:42:55;;;;;;;;;;;;;;;-148.22;100.00;58358.63;5077118;28;1153;-82
2021/07/16 00:45:28;;;;;;;;;;;;;;;-148.22;100.00;58358.63;5077200;28;1957;-81
2021/07/16 00:47:55;;;;;;;;;;;;;;;-148.22;100.00;58358.63;5078256;28;1008;-82
2021/07/16 00:50:32;;;;;;;;;;;;;;;-148.22;100.00;58358.63;5077553;28;926;-82
2021/07/16 00:53:05;;;;;;;;;;;;;;;-148.22;100.00;58358.63;5076923;28;1249;-82
2021/07/16 00:55:31;;;;;;;;;;;;;;;-148.22;100.00;58358.63;5078260;28;1004;-82
2021/07/16 00:58:15;;;;;;;;;;;;;;;-148.22;100.00;58358.63;5078135;28;1066;-82
2021/07/16 01:00:41;;;;;;;;;;;;;;;-148.22;100.00;58358.63;5076998;28;1144;-82
2021/07/16 01:03:08;;;;;;;;;;;;;;;-148.22;100.00;58358.63;5078363;28;1004;-82
2021/07/16 01:05:35;;;;;;;;;;;;;;;-148.22;100.00;58358.63;5076924;28;1890;-82
2021/07/16 01:08:04;;;;;;;;;;;;;;;-148.22;100.00;58358.63;5076706;28;1192;-82
2021/07/16 01:10:31;;;;;;;;;;;;;;;-148.22;100.00;58358.63;5076534;28;1172;-81
2021/07/16 01:12:57;;;;;;;;;;;;;;;-148.22;100.00;58358.63;5076526;28;1373;-82
2021/07/16 01:15:32;;;;;;;;;;;;;;;-148.22;100.00;58358.63;5076511;28;1276;-82
2021/07/16 01:18:06;;;;;;;;;;;;;;;-148.22;100.00;58358.63;5076601;28;1231;-82
2021/07/16 01:20:42;;;;;;;;;;;;;;;-148.22;100.00;58358.63;5076511;28;1199;-82
2021/07/16 01:23:14;;;;;;;;;;;;;;;-148.22;100.00;58358.63;5077717;28;996;-83
2021/07/16 01:25:56;;;;;;;;;;;;;;;-148.22;100.00;58358.63;5076373;28;1977;-82
2021/07/16 01:28:39;;;;;;;;;;;;;;;-148.22;100.00;58358.63;5076380;28;1160;-82
2021/07/16 01:31:07;;;;;;;;;;;;;;;-148.22;100.00;58358.63;5076348;28;1296;-82
2021/07/16 01:33:33;;;;;;;;;;;;;;;-148.22;100.00;58358.63;5076428;28;974;-83
2021/07/16 01:36:04;;;;;;;;;;;;;;;-148.22;100.00;58358.63;5076143;28;1176;-83
2021/07/16 01:38:37;;;;;;;;;;;;;;;-148.22;100.00;58358.63;5076575;28;1480;-83
2021/07/16 01:41:22;;;;;;;;;;;;;;;-148.22;100.00;58358.63;5076081;28;1282;-82
2021/07/16 01:43:47;;;;;;;;;;;;;;;-148.22;100.00;58358.63;5076344;28;1330;-82
2021/07/16 01:46:24;;;;;;;;;;;;;;;-148.22;100.00;58358.63;5075760;28;1949;-82
2021/07/16 01:49:10;;;;;;;;;;;;;;;-148.22;100.00;58358.63;5077281;28;858;-82
2021/07/16 01:52:04;;;;;;;;;;;;;;;-148.22;100.00;58358.63;5077157;28;798;-82
2021/07/16 01:54:30;;;;;;;;;;;;;;;-148.22;100.00;58358.63;4976385;28;1022;-82
2021/07/16 01:56:58;;;;;;;;;;;;;;;-148.22;100.00;58358.63;4975548;28;961;-82
2021/07/16 01:59:52;;;;;;;;;;;;;;;-148.22;100.00;58358.63;4976009;28;1366;-82
2021/07/16 02:02:18;;;;;;;;;;;;;;;-148.22;100.00;58358.63;4937441;29;1221;-82
2021/07/16 02:04:46;;;;;;;;;;;;;;;-148.22;100.00;58358.63;4936719;29;1898;-82
2021/07/16 02:07:12;;;;;;;;;;;;;;;-148.22;100.00;58358.63;4937479;29;1005;-82
2021/07/16 02:09:38;;;;;;;;;;;;;;;-148.22;100.00;58358.63;4937484;29;804;-82
2021/07/16 02:12:04;;;;;;;;;;;;;;;-148.22;100.00;58358.63;4930054;29;1275;-81
2021/07/16 02:14:30;;;;;;;;;;;;;;;-148.22;100.00;58358.63;4921592;29;926;-81
2021/07/16 02:16:59;;;;;;;;;;;;;;;-148.22;100.00;58358.63;4937297;29;1223;-81
2021/07/16 02:19:46;;;;;;;;;;;;;;;-148.22;100.00;58358.63;4937265;28;1365;-82
2021/07/16 02:22:11;;;;;;;;;;;;;;;-148.22;100.00;58358.63;4937237;28;1363;-81
2021/07/16 02:24:37;;;;;;;;;;;;;;;-148.22;100.00;58358.63;4937153;29;1911;-81
2021/07/16 02:27:12;;;;;;;;;;;;;;;-148.22;100.00;58358.63;4921268;29;1306;-81
2021/07/16 02:29:38;;;;;;;;;;;;;;;-148.22;100.00;58358.63;4937130;29;797;-82
2021/07/16 02:32:04;;;;;;;;;;;;;;;-148.22;100.00;58358.63;5014574;28;1204;-82
2021/07/16 02:34:30;;;;;;;;;;;;;;;-148.22;100.00;58358.63;5014504;28;1286;-82
2021/07/16 02:36:56;;;;;;;;;;;;;;;-148.22;100.00;58358.63;4998082;28;1485;-81
2021/07/16 02:39:21;;;;;;;;;;;;;;;-148.22;100.00;58358.63;5047378;28;911;-82
2021/07/16 02:41:53;;;;;;;;;;;;;;;-148.22;100.00;58358.63;5055273;28;1282;-82
2021/07/16 02:44:19;;;;;;;;;;;;;;;-148.22;100.00;58358.63;5056090;28;1032;-83
2021/07/16 02:46:59;;;;;;;;;;;;;;;-148.22;100.00;58358.63;5054898;28;1986;-82
2021/07/16 02:49:25;;;;;;;;;;;;;;;-148.22;100.00;58358.63;5056117;28;928;-82
2021/07/16 02:51:50;;;;;;;;;;;;;;;-148.22;100.00;58358.63;5055229;28;1296;-82
2021/07/16 02:54:32;;;;;;;;;;;;;;;-148.22;100.00;58358.63;5055109;28;1335;-82
2021/07/16 02:57:06;;;;;;;;;;;;;;;-148.22;100.00;58358.63;5054828;28;1167;-82
2021/07/16 02:59:31;;;;;;;;;;;;;;;-148.22;100.00;58358.63;5055902;28;822;-82
2021/07/16 03:01:58;;;;;;;;;;;;;;;-148.22;100.00;58358.63;5055808;28;878;-82
2021/07/16 03:04:29;;;;;;;;;;;;;;;-148.22;100.00;58358.63;5054196;28;1894;-82
2021/07/16 03:06:55;;;;;;;;;;;;;;;-148.22;100.00;58358.63;5055932;28;921;-82
2021/07/16 03:09:23;;;;;;;;;;;;;;;-148.22;100.00;58358.63;5054683;28;1274;-82
2021/07/16 03:11:48;;;;;;;;;;;;;;;-148.22;100.00;58358.63;5053930;28;1266;-82
2021/07/16 03:14:13;;;;;;;;;;;;;;;-148.22;100.00;58358.63;5034605;28;1196;-82
2021/07/16 03:16:40;;;;;;;;;;;;;;;-148.22;100.00;58358.63;5034689;28;1172;-82
2021/07/16 03:19:07;;;;;;;;;;;;;;;-148.22;100.00;58358.63;5034567;28;1175;-82
2021/07/16 03:21:59;;;;;;;;;;;;;;;-148.22;100.00;58358.63;5035774;28;827;-81
2021/07/16 03:24:29;;;;;;;;;;;;;;;-148.22;100.00;58358.63;5034445;28;1910;-82
2021/07/16 03:27:01;;;;;;;;;;;;;;;-148.22;100.00;58358.63;5034644;28;1215;-82
2021/07/16 03:29:33;;;;;;;;;;;;;;;-148.22;100.00;58358.63;5034474;28;1201;-82
2021/07/16 03:32:08;;;;;;;;;;;;;;;-148.22;100.00;58358.63;5035664;28;1153;-82
2021/07/16 03:34:43;;;;;;;;;;;;;;;-148.22;100.00;58358.63;5034391;28;1171;-82
2021/07/16 03:37:10;;;;;;;;;;;;;;;-148.22;100.00;58358.63;5034435;28;1326;-82
2021/07/16 03:39:36;;;;;;;;;;;;;;;-148.22;100.00;58358.63;5035568;28;985;-82
2021/07/16 03:42:01;;;;;;;;;;;;;;;-148.22;100.00;58358.63;5034457;28;1256;-82
2021/07/16 03:44:40;;;;;;;;;;;;;;;-148.22;100.00;58358.63;5035650;28;2096;-82
2021/07/16 03:47:17;;;;;;;;;;;;;;;-148.22;100.00;58358.63;5034325;28;1167;-82
2021/07/16 03:49:50;;;;;;;;;;;;;;;-148.22;100.00;58358.63;5034721;28;1242;-82
2021/07/16 03:52:25;;;;;;;;;;;;;;;-148.22;100.00;58358.63;5034450;28;1243;-82
2021/07/16 03:54:51;;;;;;;;;;;;;;;-148.22;100.00;58358.63;5034181;28;1304;-82
2021/07/16 03:57:19;;;;;;;;;;;;;;;-148.22;100.00;58358.63;5053078;28;974;-82
2021/07/16 03:59:50;;;;;;;;;;;;;;;-148.22;100.00;58358.63;5052961;28;1232;-82
2021/07/16 04:02:17;;;;;;;;;;;;;;;-148.22;100.00;58358.63;5053989;28;1286;-81
2021/07/16 04:04:50;;;;;;;;;;;;;;;-148.22;100.00;58358.63;5053909;28;1894;-82
2021/07/16 04:07:22;;;;;;;;;;;;;;;-148.22;100.00;58358.63;5055339;28;897;-82
2021/07/16 04:09:47;;;;;;;;;;;;;;;-148.22;100.00;58358.63;5055315;28;827;-82
2021/07/16 04:12:14;;;;;;;;;;;;;;;-148.22;100.00;58358.63;5056685;28;1280;-82
2021/07/16 04:14:43;;;;;;;;;;;;;;;-148.22;100.00;58358.63;5075243;28;834;-82
2021/07/16 04:17:17;;;;;;;;;;;;;;;-148.22;100.00;58358.63;5073906;28;1416;-82
2021/07/16 04:19:52;;;;;;;;;;;;;;;-148.22;100.00;58358.63;5073888;28;1310;-82
2021/07/16 04:22:25;;;;;;;;;;;;;;;-148.22;100.00;58358.63;5073848;28;1166;-81
2021/07/16 04:24:56;;;;;;;;;;;;;;;-148.22;100.00;58358.63;5075634;28;2017;-82
2021/07/16 04:27:22;;;;;;;;;;;;;;;-148.22;100.00;58358.63;5078706;28;1012;-82
2021/07/16 04:30:04;;;;;;;;;;;;;;;-148.22;100.00;58358.63;5077477;28;1267;-82
2021/07/16 04:35:45;;;;;;;;;;;;;;;-148.22;100.00;58358.63;5036645;28;1089;-82
2021/07/16 04:38:10;;;;;;;;;;;;;;;-148.22;100.00;58358.63;5036628;28;898;-82
2021/07/16 04:40:36;;;;;;;;;;;;;;;-148.22;100.00;58358.63;5036522;28;1090;-82
2021/07/16 04:43:03;;;;;;;;;;;;;;;-148.22;100.00;58358.63;5019988;28;1349;-82
2021/07/16 04:45:37;;;;;;;;;;;;;;;-148.22;100.00;58358.63;5019793;28;1890;-82
2021/07/16 04:48:03;;;;;;;;;;;;;;;-148.22;100.00;58358.63;5019795;28;1304;-82
2021/07/16 04:50:38;;;;;;;;;;;;;;;-148.22;100.00;58358.63;5019781;28;1392;-82
2021/07/16 04:53:15;;;;;;;;;;;;;;;-148.22;100.00;58358.63;5019832;28;1295;-82
2021/07/16 04:55:42;;;;;;;;;;;;;;;-148.22;100.00;58358.63;5036263;28;815;-82
2021/07/16 04:58:20;;;;;;;;;;;;;;;-148.22;100.00;58358.63;5036453;28;1111;-82
2021/07/16 05:00:47;;;;;;;;;;;;;;;-148.22;100.00;58358.63;5036298;28;1000;-82
2021/07/16 05:03:14;;;;;;;;;;;;;;;-148.22;100.00;58358.63;5036226;28;961;-82
2021/07/16 05:05:40;;;;;;;;;;;;;;;-148.22;100.00;58358.63;5019235;28;1878;-82
2021/07/16 05:08:05;;;;;;;;;;;;;;;-148.22;100.00;58358.63;5036251;28;784;-82
2021/07/16 05:10:32;;;;;;;;;;;;;;;-148.22;100.00;58358.63;5019308;28;1127;-82
2021/07/16 05:12:57;;;;;;;;;;;;;;;-148.22;100.00;58358.63;5067306;28;1186;-82
2021/07/16 05:15:27;;;;;;;;;;;;;;;-148.22;100.00;58358.63;5077676;28;811;-82
2021/07/16 05:17:54;;;;;;;;;;;;;;;-148.22;100.00;58358.63;5077166;28;1005;-82
2021/07/16 05:20:20;;;;;;;;;;;;;;;-148.22;100.00;58358.63;5076500;28;973;-82
2021/07/16 05:22:55;;;;;;;;;;;;;;;-148.22;100.00;58358.63;5076503;28;1290;-82
2021/07/16 05:25:31;;;;;;;;;;;;;;;-148.22;100.00;58358.63;5077638;28;1975;-82
2021/07/16 05:27:57;;;;;;;;;;;;;;;-148.22;100.00;58358.63;5077630;28;807;-81
2021/07/16 05:30:24;;;;;;;;;;;;;;;-148.22;100.00;58358.63;5076333;28;1160;-81
2021/07/16 05:32:52;;;;;;;;;;;;;;;-148.22;100.00;58358.63;5077452;28;981;-82
2021/07/16 05:35:20;;;;;;;;;;;;;;;-148.22;100.00;58358.63;5075838;28;1258;-81
2021/07/16 05:37:54;;;;;;;;;;;;;;;-148.22;100.00;58358.63;5076144;28;1326;-82
2021/07/16 05:40:37;;;;;;;;;;;;;;;-148.22;100.00;58358.63;5076188;28;1339;-82
2021/07/16 05:43:36;;;;;;;;;;;;;;;-148.22;100.00;58358.63;5077269;28;993;-82
2021/07/16 05:46:02;;;;;;;;;;;;;;;-148.22;100.00;58358.63;4960257;28;1899;-81
2021/07/16 05:48:31;;;;;;;;;;;;;;;-148.22;100.00;58358.63;4976417;28;1259;-82
2021/07/16 05:51:13;;;;;;;;;;;;;;;-148.22;100.00;58358.63;4976311;28;1254;-82
2021/07/16 05:53:39;;;;;;;;;;;;;;;-148.22;100.00;58358.63;4976410;28;1038;-82
2021/07/16 05:56:07;;;;;;;;;;;;;;;-148.22;100.00;58358.63;4974382;28;1179;-81
2021/07/16 05:58:33;;;;;;;;;;;;;;;-148.22;100.00;58358.63;4974884;28;929;-81
2021/07/16 06:01:00;;;;;;;;;;;;;;;-148.22;100.00;58358.63;4976027;28;1331;-82
2021/07/16 06:03:28;;;;;;;;;;;;;;;-148.22;100.00;58358.63;4976157;28;1014;-81
2021/07/16 06:06:02;;;;;;;;;;;;;;;-148.22;100.00;58358.63;4976098;28;1883;-81
2021/07/16 06:08:29;;;;;;;;;;;;;;;-148.22;100.00;58358.63;4976051;28;1390;-81
2021/07/16 06:10:56;;;;;;;;;;;;;;;-148.22;100.00;58358.63;4975992;28;1254;-81
2021/07/16 06:13:21;;;;;;;;;;;;;;;-148.22;100.00;58358.63;4975709;28;1168;-82
2021/07/16 06:15:58;;;;;;;;;;;;;;;-148.22;100.00;58358.63;4975732;28;1399;-81
2021/07/16 06:18:24;;;;;;;;;;;;;;;-148.22;100.00;58358.63;4975939;28;1173;-81
2021/07/16 06:20:51;;;;;;;;;;;;;;;-148.22;100.00;58358.63;4994768;28;983;-82
2021/07/16 06:23:23;;;;;;;;;;;;;;;-148.22;100.00;58358.63;5073881;28;1394;-81
2021/07/16 06:25:49;;;;;;;;;;;;;;;-148.22;100.00;58358.63;5075073;28;1902;-82
2021/07/16 06:28:14;;;;;;;;;;;;;;;-148.22;100.00;58358.63;5076381;28;1021;-82
2021/07/16 06:30:40;;;;;;;;;;;;;;;-148.22;100.00;58358.63;5075900;28;967;-82
2021/07/16 06:33:11;;;;;;;;;;;;;;;-148.22;100.00;58358.63;5074483;28;1310;-81
2021/07/16 06:35:36;;;;;;;;;;;;;;;-148.22;100.00;58358.63;5075058;28;1328;-81
2021/07/16 06:38:02;;;;;;;;;;;;;;;-148.22;100.00;58358.63;5075065;28;1195;-81
2021/07/16 06:40:28;;;;;;;;;;;;;;;-148.22;100.00;58358.63;5076193;28;1032;-82
2021/07/16 06:43:10;;;;;;;;;;;;;;;-148.22;100.00;58358.63;5074971;28;1184;-81
2021/07/16 06:45:39;;;;;;;;;;;;;;;-148.22;100.00;58358.63;5074819;28;1894;-82
2021/07/16 06:48:05;;;;;;;;;;;;;;;-148.22;100.00;58358.63;5074271;28;1236;-81
2021/07/16 06:50:30;;;;;;;;;;;;;;;-148.22;100.00;58358.63;5074694;28;1193;-82
2021/07/16 06:53:07;;;;;;;;;;;;;;;-148.22;100.00;58358.63;5074682;28;1377;-81
2021/07/16 06:55:42;;;;;;;;;;;;;;;-148.22;100.00;58358.63;5074842;28;1290;-81
2021/07/16 06:58:08;;;;;;;;;;;;;;;-148.22;100.00;58358.63;5075873;28;1051;-82
2021/07/16 07:00:44;;;;;;;;;;;;;;;-148.22;100.00;58358.63;5075958;28;1040;-81
2021/07/16 07:03:09;;;;;;;;;;;;;;;-148.22;100.00;58358.63;5075681;23;1548;-81
2021/07/16 07:05:34;;;;;;;;;;;;;;;-148.22;100.00;58358.63;5034736;28;1980;-82
2021/07/16 07:08:00;;;;;;;;;;;;;;;-148.22;100.00;58358.63;5035915;28;1310;-81
2021/07/16 07:10:27;;;;;;;;;;;;;;;-148.22;100.00;58358.63;5036006;28;1311;-82
2021/07/16 07:13:30;;;;;;;;;;;;;;;-148.22;100.00;58358.63;5034569;28;1136;-81
2021/07/16 07:15:56;;;;;;;;;;;;;;;-148.22;100.00;58358.63;5013968;28;1232;-82
2021/07/16 07:18:24;;;;;;;;;;;;;;;-148.22;100.00;58358.63;5013927;28;945;-81
2021/07/16 07:20:51;;;;;;;;;;;;;;;-148.22;100.00;58358.63;5013842;28;1021;-82
2021/07/16 07:23:26;;;;;;;;;;;;;;;-148.22;100.00;58358.63;4997389;28;1353;-85
2021/07/16 07:25:54;;;;;;;;;;;;;;;-148.22;100.00;58358.63;5013892;28;1910;-83
2021/07/16 07:28:20;;;;;;;;;;;;;;;-148.22;100.00;58358.63;5014283;28;1017;-82
2021/07/16 07:30:54;;;;;;;;;;;;;;;-148.22;100.00;58358.63;4998157;28;1289;-81
2021/07/16 07:33:30;;;;;;;;;;;;;;;-148.22;100.00;58358.63;4997509;28;1363;-81
2021/07/16 07:36:11;;;;;;;;;;;;;;;-148.22;100.00;58358.63;5013901;28;1577;-83
2021/07/16 07:38:37;;;;;;;;;;;;;;;-148.22;100.00;58358.63;4997401;28;1238;-82
2021/07/16 07:41:03;;;;;;;;;;;;;;;-148.22;100.00;58358.63;4997638;28;1245;-82
2021/07/16 07:43:43;;;;;;;;;;;;;;;-148.22;100.00;58358.63;4997456;28;1439;-82
2021/07/16 07:46:13;;;;;;;;;;;;;;;-148.22;100.00;58358.63;4997430;28;1879;-81
2021/07/16 07:48:38;;;;;;;;;;;;;;;-148.22;100.00;58358.63;5013689;28;890;-81
2021/07/16 07:51:23;;;;;;;;;;;;;;;-148.22;100.00;58358.63;5033918;28;1141;-81
2021/07/16 07:54:12;;;;;;;;;;;;;;;-148.22;100.00;58358.63;5032928;28;1179;-84
2021/07/16 07:56:37;;;;;;;;;;;;;;;-148.22;100.00;58358.63;5033723;28;1219;-85
2021/07/16 07:59:10;;;;;;;;;;;;;;;-148.22;100.00;58358.63;5036096;28;1425;-85
2021/07/16 08:01:55;;;;;;;;;;;;;;;-148.22;100.00;58358.63;5039313;28;1239;-86
2021/07/16 08:04:20;;;;;;;;;;;;;;;-148.22;100.00;58358.63;5038981;28;1381;-82
2021/07/16 08:06:46;;;;;;;;;;;;;;;-148.22;100.00;58358.63;5037961;28;1898;-82
2021/07/16 08:09:19;;;;;;;;;;;;;;;-148.22;100.00;58358.63;5037977;28;1151;-82
2021/07/16 08:12:17;;;;;;;;;;;;;;;-148.22;100.00;58358.63;5037746;28;1175;-82
2021/07/16 08:15:02;;;;;;;;;;;;;;;-148.22;100.00;58358.63;5001024;28;1381;-84
2021/07/16 08:17:42;;;;;;;;;;;;;;;-148.22;100.00;58358.63;5017152;28;1249;-86
2021/07/16 08:20:36;;;;;;;;;;;;;;;-148.22;100.00;58358.63;5000890;28;1279;-85
2021/07/16 08:23:34;;;;;;;;;;;;;;;-148.22;100.00;58358.63;4978059;28;1271;-85
2021/07/16 08:26:28;;;;;;;;;;;;;;;-148.22;100.00;58358.63;4901634;29;1890;-88
2021/07/16 08:29:30;;;;;;;;;;;;;;;-148.22;100.00;58358.63;4901415;29;1196;-86
2021/07/16 08:31:57;;;;;;;;;;;;;;;-148.22;100.00;58358.63;4901653;29;1267;-86
2021/07/16 08:34:42;;;;;;;;;;;;;;;-148.22;100.00;58358.63;4885954;29;1357;-86
2021/07/16 08:37:19;;;;;;;;;;;;;;;-148.22;100.00;58358.63;4901396;29;1189;-86
2021/07/16 08:40:05;;;;;;;;;;;;;;;-148.22;100.00;58358.63;4901787;29;1202;-85
2021/07/16 08:42:33;;;;;;;;;;;;;;;-148.22;100.00;58358.63;4900745;29;1314;-86
2021/07/16 08:45:01;;;;;;;;;;;;;;;-148.22;100.00;58358.63;4884430;29;1887;-80
2021/07/16 08:47:45;;;;;;;;;;;;;;;-148.22;100.00;58358.63;4885096;29;1318;-80
2021/07/16 08:50:13;;;;;;;;;;;;;;;-148.22;100.00;58358.63;4909397;29;1257;-80
2021/07/16 08:53:00;;;;;;;;;;;;;;;-148.22;100.00;58358.63;4903914;29;1387;-84
2021/07/16 08:55:26;;;;;;;;;;;;;;;-148.22;100.00;58358.63;4920118;29;937;-82
2021/07/16 08:57:51;;;;;;;;;;;;;;;-148.22;100.00;58358.63;4904142;29;1279;-81
2021/07/16 09:00:17;;;;;;;;;;;;;;;-148.22;100.00;58358.63;4934224;29;1349;-80
2021/07/16 09:02:52;;;;;;;;;;;;;;;-148.22;100.00;58358.63;5006461;28;1083;-80
2021/07/16 09:05:17;;;;;;;;;;;;;;;-148.22;100.00;58358.63;5036437;28;1902;-83
2021/07/16 09:07:47;;;;;;;;;;;;;;;-148.22;100.00;58358.63;5038092;28;1187;-83
2021/07/16 09:10:13;;;;;;;;;;;;;;;-148.22;100.00;58358.63;5036171;28;1190;-83
2021/07/16 09:12:45;;;;;;;;;;;;;;;-148.22;100.00;58358.63;5037930;28;929;-79
2021/07/16 09:15:12;;;;;;;;;;;;;;;-148.22;100.00;58358.63;5023900;28;1249;-79
2021/07/16 09:17:43;;;;;;;;;;;;;;;-148.22;100.00;58358.63;5017077;28;1259;-79
2021/07/16 09:20:27;;;;;;;;;;;;;;;-148.22;100.00;58358.63;5018005;28;902;-79
2021/07/16 09:23:12;;;;;;;;;;;;;;;-148.22;100.00;58358.63;5017824;28;922;-78
2021/07/16 09:25:40;;;;;;;;;;;;;;;-148.22;100.00;58358.63;5016738;28;1895;-79
2021/07/16 09:28:06;;;;;;;;;;;;;;;-148.22;100.00;58358.63;5018783;28;1161;-79
2021/07/16 09:30:35;;;;;;;;;;;;;;;-148.22;100.00;58358.63;5020856;28;1255;-79
2021/07/16 09:33:09;;;;;;;;;;;;;;;-148.22;100.00;58358.63;5036184;28;1387;-80
2021/07/16 09:35:45;;;;;;;;;;;;;;;-148.22;100.00;58358.63;5028241;28;1358;-80
2021/07/16 09:38:13;;;;;;;;;;;;;;;-148.22;100.00;58358.63;5017608;28;833;-79
2021/07/16 09:40:46;;;;;;;;;;;;;;;-148.22;100.00;58358.63;5017556;28;894;-81
2021/07/16 09:43:18;;;;;;;;;;;;;;;-148.22;100.00;58358.63;5036614;28;1327;-81
2021/07/16 09:46:04;;;;;;;;;;;;;;;-148.22;100.00;58358.63;5033001;28;1886;-80
2021/07/16 09:48:35;;;;;;;;;;;;;;;-148.22;100.00;58358.63;5032638;28;1330;-80
2021/07/16 09:51:32;;;;;;;;;;;;;;;-148.22;100.00;58358.63;5032590;28;1155;-80
2021/07/16 09:54:13;;;;;;;;;;;;;;;-148.22;100.00;58358.63;5017262;28;858;-80
2021/07/16 09:56:48;;;;;;;;;;;;;;;-148.22;100.00;58358.63;5032464;28;1189;-80
2021/07/16 09:59:26;;;;;;;;;;;;;;;-148.22;100.00;58358.63;5032501;28;1257;-81
2021/07/16 10:02:02;;;;;;;;;;;;;;;-148.22;100.00;58358.63;5017097;28;1208;-80
2021/07/16 10:04:33;;;;;;;;;;;;;;;-148.22;100.00;58358.63;5015616;28;1370;-80
2021/07/16 10:07:04;;;;;;;;;;;;;;;-148.22;100.00;58358.63;5017072;28;1918;-79
2021/07/16 10:09:40;;;;;;;;;;;;;;;-148.22;100.00;58358.63;5016815;28;767;-79
2021/07/16 10:12:05;;;;;;;;;;;;;;;-148.22;100.00;58358.63;5016866;28;898;-80
2021/07/16 10:14:40;;;;;;;;;;;;;;;-148.22;100.00;58358.63;5031985;28;1248;-80
2021/07/16 10:17:07;;;;;;;;;;;;;;;-148.22;100.00;58358.63;5032659;28;1300;-83
2021/07/16 10:19:43;;;;;;;;;;;;;;;-148.22;100.00;58358.63;5015621;28;1184;-80
2021/07/16 10:22:09;;;;;;;;;;;;;;;-148.22;100.00;58358.63;5015782;28;1054;-79
2021/07/16 10:24:36;;;;;;;;;;;;;;;-148.22;100.00;58358.63;5016724;28;1067;-79
2021/07/16 10:27:18;;;;;;;;;;;;;;;-148.22;100.00;58358.63;5031885;28;1878;-80
2021/07/16 10:30:04;;;;;;;;;;;;;;;-148.22;100.00;58358.63;5031886;28;1221;-80
2021/07/16 10:32:42;;;;;;;;;;;;;;;-148.22;100.00;58358.63;5031960;28;1270;-84
2021/07/16 10:35:16;;;;;;;;;;;;;;;-148.22;100.00;58358.63;5015683;28;1316;-84
2021/07/16 10:38:02;;;;;;;;;;;;;;;-148.22;100.00;58358.63;5016906;28;855;-85
2021/07/16 10:40:45;;;;;;;;;;;;;;;-148.22;100.00;58358.63;5033462;28;1190;-81
2021/07/16 10:43:23;;;;;;;;;;;;;;;-148.22;100.00;58358.63;5034407;28;1294;-81
2021/07/16 10:45:51;;;;;;;;;;;;;;;-148.22;100.00;58358.63;5035360;28;1890;-81
2021/07/16 10:48:18;;;;;;;;;;;;;;;-148.22;100.00;58358.63;5036087;28;1040;-81
2021/07/16 10:50:44;;;;;;;;;;;;;;;-148.22;100.00;58358.63;5034860;28;1274;-80
2021/07/16 10:53:32;;;;;;;;;;;;;;;-148.22;100.00;58358.63;5034887;28;1181;-82
2021/07/16 10:56:18;;;;;;;;;;;;;;;-148.22;100.00;58358.63;5014169;28;1229;-81
2021/07/16 10:58:45;;;;;;;;;;;;;;;-148.22;100.00;58358.63;5012957;28;951;-81
2021/07/16 11:01:13;;;;;;;;;;;;;;;-148.22;100.00;58358.63;4996116;28;1359;-81
2021/07/16 11:03:46;;;;;;;;;;;;;;;-148.22;100.00;58358.63;4990422;28;1180;-80
2021/07/16 11:06:12;;;;;;;;;;;;;;;-148.22;100.00;58358.63;4993751;28;1915;-80
2021/07/16 11:08:39;;;;;;;;;;;;;;;-148.22;100.00;58358.63;4997748;28;1226;-80
2021/07/16 11:11:06;;;;;;;;;;;;;;;-148.22;100.00;58358.63;5014056;28;882;-80
2021/07/16 11:13:51;;;;;;;;;;;;;;;-148.22;100.00;58358.63;4997599;28;1221;-81
2021/07/16 11:16:31;;;;;;;;;;;;;;;-148.22;100.00;58358.63;5013944;28;1419;-81
2021/07/16 11:19:03;;;;;;;;;;;;;;;-148.22;100.00;58358.63;5013910;28;1236;-81
2021/07/16 11:21:40;;;;;;;;;;;;;;;-148.22;100.00;58358.63;5014098;28;874;-81
2021/07/16 11:24:40;;;;;;;;;;;;;;;-148.22;100.00;58358.63;5013932;28;1242;-81
2021/07/16 11:27:09;;;;;;;;;;;;;;;-148.22;100.00;58358.63;4954482;28;1910;-81
2021/07/16 11:29:53;;;;;;;;;;;;;;;-148.22;100.00;58358.63;4954722;28;1520;-81
2021/07/16 11:32:34;;;;;;;;;;;;;;;-148.22;100.00;58358.63;4954110;29;1162;-81
2021/07/16 11:35:29;;;;;;;;;;;;;;;-148.22;100.00;58358.63;4941789;29;1284;-81
2021/07/16 11:37:55;;;;;;;;;;;;;;;-148.22;100.00;58358.63;4978364;28;1522;-85
2021/07/16 11:40:34;;;;;;;;;;;;;;;-148.22;100.00;58358.63;4960936;28;1413;-82
2021/07/16 11:43:00;;;;;;;;;;;;;;;-148.22;100.00;58358.63;4962176;28;1365;-84
2021/07/16 11:45:35;;;;;;;;;;;;;;;-148.22;100.00;58358.63;4963500;28;1903;-85
2021/07/16 11:48:22;;;;;;;;;;;;;;;-148.22;100.00;58358.63;4962954;28;1229;-86
2021/07/16 11:51:05;;;;;;;;;;;;;;;-148.22;100.00;58358.63;4979908;28;980;-86
2021/07/16 11:53:42;;;;;;;;;;;;;;;-148.22;100.00;58358.63;4952552;28;1281;-85
2021/07/16 11:56:12;;;;;;;;;;;;;;;-148.22;100.00;58358.63;4963007;28;1289;-86
2021/07/16 11:58:48;;;;;;;;;;;;;;;-148.22;100.00;58358.63;4963032;28;1393;-85
2021/07/16 12:01:19;;;;;;;;;;;;;;;-148.22;100.00;58358.63;4978684;28;1264;-84
2021/07/16 12:04:17;;;;;;;;;;;;;;;-148.22;100.00;58358.63;5000228;28;1125;-85
2021/07/16 12:06:51;;;;;;;;;;;;;;;-148.22;100.00;58358.63;4943843;29;1899;-88
2021/07/16 12:09:39;;;;;;;;;;;;;;;-148.22;100.00;58358.63;4959893;28;1257;-87
2021/07/16 12:12:33;;;;;;;;;;;;;;;-148.22;100.00;58358.63;4959604;28;1290;-88
2021/07/16 12:18:29;;;;;;;;;;;;;;;-148.22;100.00;58358.63;4958669;29;1584;-89
2021/07/16 12:20:56;;;;;;;;;;;;;;;-148.22;100.00;58358.63;4939235;29;1412;-88
2021/07/16 12:23:28;;;;;;;;;;;;;;;-148.22;100.00;58358.63;4960153;29;1314;-88
2021/07/16 12:26:19;;;;;;;;;;;;;;;-148.22;100.00;58358.63;4921813;29;1895;-91
2021/07/16 12:28:45;;;;;;;;;;;;;;;-148.22;100.00;58358.63;4921206;29;1219;-89
2021/07/16 12:31:11;;;;;;;;;;;;;;;-148.22;100.00;58358.63;4917922;29;1292;-87
2021/07/16 12:33:38;;;;;;;;;;;;;;;-148.22;100.00;58358.63;4942676;28;1517;-86
2021/07/16 12:39:25;;;;;;;;;;;;;;;-148.22;100.00;58358.63;4967372;28;1435;-87
2021/07/16 12:42:17;;;;;;;;;;;;;;;-148.22;100.00;58358.63;4973716;28;1326;-86
2021/07/16 12:45:09;;;;;;;;;;;;;;;-148.22;100.00;58358.63;4997422;28;1296;-88
2021/07/16 12:47:47;;;;;;;;;;;;;;;-148.22;100.00;58358.63;4982008;28;1323;-84
2021/07/16 12:50:13;;;;;;;;;;;;;;;-148.22;100.00;58358.63;4982346;28;1254;-84
2021/07/16 12:52:39;;;;;;;;;;;;;;;-148.22;100.00;58358.63;5020112;28;1172;-84
2021/07/16 12:55:23;;;;;;;;;;;;;;;-148.22;100.00;58358.63;5019779;28;1237;-84
2021/07/16 12:57:59;;;;;;;;;;;;;;;-148.22;100.00;58358.63;5019771;28;1216;-84
2021/07/16 13:00:24;;;;;;;;;;;;;;;-148.22;100.00;58358.63;5028804;28;1374;-84
2021/07/16 13:05:36;;;;;;;;;;;;;;;-148.22;100.00;58358.63;5016200;28;1975;-85
2021/07/16 13:08:16;;;;;;;;;;;;;;;-148.22;100.00;58358.63;4999929;28;1287;-85